sensor_id;sensor_type;location;lat;lon;timestamp;pressure;altitude;pressure_sealevel;temperature;humidity
21824;BME280;11074;48.596;9.238;2023-03-03T00:00:42;98448.19;;;5.50;71.57
21824;BME280;11074;48.596;9.238;2023-03-03T00:03:11;98456.09;;;5.57;72.38
21824;BME280;11074;48.596;9.238;2023-03-03T00:05:38;98447.94;;;5.58;72.21
21824;BME280;11074;48.596;9.238;2023-03-03T00:08:04;98456.53;;;5.53;72.15
21824;BME280;11074;48.596;9.238;2023-03-03T00:10:30;98446.38;;;5.50;71.39
21824;BME280;11074;48.596;9.238;2023-03-03T00:12:56;98452.25;;;5.53;72.12
21824;BME280;11074;48.596;9.238;2023-03-03T00:15:24;98455.50;;;5.55;72.48
21824;BME280;11074;48.596;9.238;2023-03-03T00:17:51;98456.91;;;5.57;72.32
21824;BME280;11074;48.596;9.238;2023-03-03T00:20:38;98457.34;;;5.54;71.90
21824;BME280;11074;48.596;9.238;2023-03-03T00:23:37;98454.50;;;5.56;72.01
21824;BME280;11074;48.596;9.238;2023-03-03T00:26:32;98451.63;;;5.57;71.68
21824;BME280;11074;48.596;9.238;2023-03-03T00:28:59;98452.44;;;5.58;72.21
21824;BME280;11074;48.596;9.238;2023-03-03T00:31:34;98451.78;;;5.62;72.58
21824;BME280;11074;48.596;9.238;2023-03-03T00:34:27;98453.59;;;5.68;71.83
21824;BME280;11074;48.596;9.238;2023-03-03T00:36:57;98451.53;;;5.70;71.63
21824;BME280;11074;48.596;9.238;2023-03-03T00:39:37;98458.47;;;5.71;70.65
21824;BME280;11074;48.596;9.238;2023-03-03T00:42:17;98458.25;;;5.73;71.30
21824;BME280;11074;48.596;9.238;2023-03-03T00:44:57;98458.25;;;5.73;70.64
21824;BME280;11074;48.596;9.238;2023-03-03T00:47:35;98449.31;;;5.67;71.09
21824;BME280;11074;48.596;9.238;2023-03-03T00:52:36;98445.47;;;5.63;70.78
21824;BME280;11074;48.596;9.238;2023-03-03T00:55:03;98449.53;;;5.66;71.31
21824;BME280;11074;48.596;9.238;2023-03-03T00:57:29;98454.84;;;5.59;70.90
21824;BME280;11074;48.596;9.238;2023-03-03T00:59:55;98447.53;;;5.55;71.74
21824;BME280;11074;48.596;9.238;2023-03-03T01:02:20;98448.38;;;5.55;72.09
21824;BME280;11074;48.596;9.238;2023-03-03T01:04:50;98449.59;;;5.53;71.52
21824;BME280;11074;48.596;9.238;2023-03-03T01:07:17;98449.59;;;5.53;71.85
21824;BME280;11074;48.596;9.238;2023-03-03T01:09:44;98450.44;;;5.53;71.50
21824;BME280;11074;48.596;9.238;2023-03-03T01:12:10;98446.13;;;5.52;72.19
21824;BME280;11074;48.596;9.238;2023-03-03T01:14:37;98444.13;;;5.47;71.95
21824;BME280;11074;48.596;9.238;2023-03-03T01:17:04;98448.47;;;5.35;72.82
21824;BME280;11074;48.596;9.238;2023-03-03T01:19:30;98446.09;;;5.21;73.05
21824;BME280;11074;48.596;9.238;2023-03-03T01:21:56;98455.88;;;5.20;72.89
21824;BME280;11074;48.596;9.238;2023-03-03T01:24:22;98455.66;;;5.22;73.16
21824;BME280;11074;48.596;9.238;2023-03-03T01:26:48;98458.13;;;5.17;73.41
21824;BME280;11074;48.596;9.238;2023-03-03T01:29:14;98451.41;;;5.14;72.35
21824;BME280;11074;48.596;9.238;2023-03-03T01:31:39;98446.16;;;5.08;72.99
21824;BME280;11074;48.596;9.238;2023-03-03T01:34:05;98445.28;;;5.14;73.53
21824;BME280;11074;48.596;9.238;2023-03-03T01:36:32;98446.13;;;5.14;72.65
21824;BME280;11074;48.596;9.238;2023-03-03T01:39:00;98448.00;;;5.07;72.30
21824;BME280;11074;48.596;9.238;2023-03-03T01:41:30;98454.97;;;4.88;74.34
21824;BME280;11074;48.596;9.238;2023-03-03T01:43:59;98448.28;;;4.86;73.79
21824;BME280;11074;48.596;9.238;2023-03-03T01:46:47;98457.84;;;4.74;74.33
21824;BME280;11074;48.596;9.238;2023-03-03T01:49:25;98457.84;;;4.80;74.13
21824;BME280;11074;48.596;9.238;2023-03-03T01:52:09;98463.75;;;4.89;73.80
21824;BME280;11074;48.596;9.238;2023-03-03T01:54:51;98446.63;;;4.85;74.23
21824;BME280;11074;48.596;9.238;2023-03-03T01:57:30;98448.69;;;4.89;73.69
21824;BME280;11074;48.596;9.238;2023-03-03T01:59:59;98444.16;;;4.90;73.72
21824;BME280;11074;48.596;9.238;2023-03-03T02:02:28;98447.03;;;4.88;72.92
21824;BME280;11074;48.596;9.238;2023-03-03T02:04:54;98440.97;;;4.68;72.71
21824;BME280;11074;48.596;9.238;2023-03-03T02:07:22;98439.56;;;4.59;73.53
21824;BME280;11074;48.596;9.238;2023-03-03T02:12:39;98433.03;;;4.68;72.91
21824;BME280;11074;48.596;9.238;2023-03-03T02:15:33;98434.69;;;4.56;73.42
21824;BME280;11074;48.596;9.238;2023-03-03T02:18:15;98435.69;;;4.55;72.08
21824;BME280;11074;48.596;9.238;2023-03-03T02:23:59;98428.56;;;4.62;73.25
21824;BME280;11074;48.596;9.238;2023-03-03T02:26:31;98433.69;;;4.57;72.15
21824;BME280;11074;48.596;9.238;2023-03-03T02:28:58;98424.50;;;4.53;72.36
21824;BME280;11074;48.596;9.238;2023-03-03T02:31:27;98423.91;;;4.45;73.08
21824;BME280;11074;48.596;9.238;2023-03-03T02:33:54;98423.34;;;4.29;74.26
21824;BME280;11074;48.596;9.238;2023-03-03T02:36:34;98426.38;;;4.46;73.18
21824;BME280;11074;48.596;9.238;2023-03-03T02:39:24;98424.72;;;4.45;72.97
21824;BME280;11074;48.596;9.238;2023-03-03T02:42:01;98415.59;;;4.35;73.40
21824;BME280;11074;48.596;9.238;2023-03-03T02:44:31;98418.44;;;4.40;73.48
21824;BME280;11074;48.596;9.238;2023-03-03T02:46:57;98423.13;;;4.38;73.44
21824;BME280;11074;48.596;9.238;2023-03-03T02:49:28;98424.53;;;4.40;73.51
21824;BME280;11074;48.596;9.238;2023-03-03T02:51:55;98422.31;;;4.31;73.26
21824;BME280;11074;48.596;9.238;2023-03-03T02:54:24;98417.84;;;4.31;73.48
21824;BME280;11074;48.596;9.238;2023-03-03T02:56:50;98428.63;;;4.29;73.64
21824;BME280;11074;48.596;9.238;2023-03-03T02:59:17;98419.88;;;4.29;73.27
21824;BME280;11074;48.596;9.238;2023-03-03T03:01:43;98423.53;;;4.21;73.61
21824;BME280;11074;48.596;9.238;2023-03-03T03:04:16;98417.88;;;4.11;74.62
21824;BME280;11074;48.596;9.238;2023-03-03T03:06:43;98430.06;;;4.19;74.64
21824;BME280;11074;48.596;9.238;2023-03-03T03:09:10;98425.38;;;4.08;75.13
21824;BME280;11074;48.596;9.238;2023-03-03T03:11:37;98423.75;;;4.20;74.52
21824;BME280;11074;48.596;9.238;2023-03-03T03:14:06;98423.94;;;4.18;74.28
21824;BME280;11074;48.596;9.238;2023-03-03T03:16:32;98426.00;;;4.23;73.90
21824;BME280;11074;48.596;9.238;2023-03-03T03:19:00;98432.50;;;4.14;75.28
21824;BME280;11074;48.596;9.238;2023-03-03T03:21:26;98429.03;;;4.13;74.98
21824;BME280;11074;48.596;9.238;2023-03-03T03:23:52;98426.41;;;4.13;75.07
21824;BME280;11074;48.596;9.238;2023-03-03T03:26:18;98437.41;;;4.17;74.61
21824;BME280;11074;48.596;9.238;2023-03-03T03:28:49;98425.78;;;4.24;74.55
21824;BME280;11074;48.596;9.238;2023-03-03T03:31:17;98437.00;;;4.20;75.17
21824;BME280;11074;48.596;9.238;2023-03-03T03:33:43;98432.50;;;4.14;75.46
21824;BME280;11074;48.596;9.238;2023-03-03T03:36:10;98438.19;;;4.24;75.21
21824;BME280;11074;48.596;9.238;2023-03-03T03:38:37;98435.75;;;4.36;74.94
21824;BME280;11074;48.596;9.238;2023-03-03T03:41:05;98433.31;;;4.41;74.37
21824;BME280;11074;48.596;9.238;2023-03-03T03:43:31;98432.91;;;4.44;74.84
21824;BME280;11074;48.596;9.238;2023-03-03T03:45:57;98443.88;;;4.41;75.70
21824;BME280;11074;48.596;9.238;2023-03-03T03:48:23;98436.75;;;4.35;75.92
21824;BME280;11074;48.596;9.238;2023-03-03T03:50:49;98443.69;;;4.36;76.21
21824;BME280;11074;48.596;9.238;2023-03-03T03:53:16;98444.72;;;4.41;75.58
21824;BME280;11074;48.596;9.238;2023-03-03T03:55:43;98443.47;;;4.44;75.43
21824;BME280;11074;48.596;9.238;2023-03-03T03:58:17;98438.78;;;4.46;75.29
21824;BME280;11074;48.596;9.238;2023-03-03T04:00:44;98445.31;;;4.43;76.28
21824;BME280;11074;48.596;9.238;2023-03-03T04:03:11;98455.09;;;4.29;75.91
21824;BME280;11074;48.596;9.238;2023-03-03T04:05:38;98450.00;;;4.35;76.12
21824;BME280;11074;48.596;9.238;2023-03-03T04:08:04;98450.41;;;4.38;75.98
21824;BME280;11074;48.596;9.238;2023-03-03T04:10:30;98458.75;;;4.42;75.97
21824;BME280;11074;48.596;9.238;2023-03-03T04:12:57;98451.22;;;4.39;76.82
21824;BME280;11074;48.596;9.238;2023-03-03T04:15:22;98446.53;;;4.41;76.55
21824;BME280;11074;48.596;9.238;2023-03-03T04:17:48;98449.81;;;4.36;76.48
21824;BME280;11074;48.596;9.238;2023-03-03T04:20:14;98445.94;;;4.32;76.45
21824;BME280;11074;48.596;9.238;2023-03-03T04:22:41;98438.59;;;4.34;76.57
21824;BME280;11074;48.596;9.238;2023-03-03T04:25:11;98437.19;;;4.38;76.96
21824;BME280;11074;48.596;9.238;2023-03-03T04:27:38;98438.38;;;4.42;76.96
21824;BME280;11074;48.596;9.238;2023-03-03T04:30:05;98444.72;;;4.41;76.80
21824;BME280;11074;48.596;9.238;2023-03-03T04:32:31;98443.84;;;4.47;75.88
21824;BME280;11074;48.596;9.238;2023-03-03T04:34:59;98443.03;;;4.53;76.38
21824;BME280;11074;48.596;9.238;2023-03-03T04:37:25;98447.31;;;4.54;76.55
21824;BME280;11074;48.596;9.238;2023-03-03T04:39:50;98451.81;;;4.54;75.71
21824;BME280;11074;48.596;9.238;2023-03-03T04:42:16;98450.56;;;4.56;75.88
21824;BME280;11074;48.596;9.238;2023-03-03T04:44:42;98451.81;;;4.54;76.29
21824;BME280;11074;48.596;9.238;2023-03-03T04:47:08;98447.94;;;4.56;75.58
21824;BME280;11074;48.596;9.238;2023-03-03T04:49:34;98456.47;;;4.58;75.80
21824;BME280;11074;48.596;9.238;2023-03-03T04:51:59;98460.53;;;4.61;75.90
21824;BME280;11074;48.596;9.238;2023-03-03T04:54:25;98463.59;;;4.64;75.15
21824;BME280;11074;48.596;9.238;2023-03-03T04:56:51;98462.78;;;4.64;75.70
21824;BME280;11074;48.596;9.238;2023-03-03T04:59:16;98457.28;;;4.65;75.66
21824;BME280;11074;48.596;9.238;2023-03-03T05:01:42;98458.72;;;4.68;75.77
21824;BME280;11074;48.596;9.238;2023-03-03T05:04:08;98460.31;;;4.69;75.05
21824;BME280;11074;48.596;9.238;2023-03-03T05:06:33;98464.59;;;4.70;75.16
21824;BME280;11074;48.596;9.238;2023-03-03T05:08:59;98463.19;;;4.67;74.78
21824;BME280;11074;48.596;9.238;2023-03-03T05:11:25;98468.06;;;4.70;74.94
21824;BME280;11074;48.596;9.238;2023-03-03T05:13:51;98467.66;;;4.67;75.87
21824;BME280;11074;48.596;9.238;2023-03-03T05:16:16;98475.63;;;4.60;76.05
21824;BME280;11074;48.596;9.238;2023-03-03T05:18:42;98470.53;;;4.65;75.97
21824;BME280;11074;48.596;9.238;2023-03-03T05:21:08;98479.66;;;4.69;76.01
21824;BME280;11074;48.596;9.238;2023-03-03T05:23:33;98476.84;;;4.71;75.60
21824;BME280;11074;48.596;9.238;2023-03-03T05:25:59;98485.97;;;4.68;75.32
21824;BME280;11074;48.596;9.238;2023-03-03T05:28:25;98475.00;;;4.65;75.86
21824;BME280;11074;48.596;9.238;2023-03-03T05:30:50;98481.31;;;4.64;76.32
21824;BME280;11074;48.596;9.238;2023-03-03T05:33:17;98475.00;;;4.65;75.71
21824;BME280;11074;48.596;9.238;2023-03-03T05:35:43;98482.53;;;4.61;75.88
21824;BME280;11074;48.596;9.238;2023-03-03T05:38:09;98473.56;;;4.56;75.66
21824;BME280;11074;48.596;9.238;2023-03-03T05:40:35;98479.47;;;4.58;76.16
21824;BME280;11074;48.596;9.238;2023-03-03T05:43:01;98477.66;;;4.58;75.90
21824;BME280;11074;48.596;9.238;2023-03-03T05:45:27;98483.75;;;4.59;76.08
21824;BME280;11074;48.596;9.238;2023-03-03T05:47:53;98484.78;;;4.58;75.89
21824;BME280;11074;48.596;9.238;2023-03-03T05:50:21;98491.91;;;4.57;76.25
21824;BME280;11074;48.596;9.238;2023-03-03T05:52:51;98491.50;;;4.60;76.50
21824;BME280;11074;48.596;9.238;2023-03-03T05:55:18;98488.25;;;4.58;76.72
21824;BME280;11074;48.596;9.238;2023-03-03T05:57:44;98493.72;;;4.63;76.19
21824;BME280;11074;48.596;9.238;2023-03-03T06:00:12;98494.75;;;4.69;75.95
21824;BME280;11074;48.596;9.238;2023-03-03T06:02:39;98495.97;;;4.66;76.42
21824;BME280;11074;48.596;9.238;2023-03-03T06:05:06;98504.94;;;4.65;76.48
21824;BME280;11074;48.596;9.238;2023-03-03T06:07:33;98500.47;;;4.59;76.85
21824;BME280;11074;48.596;9.238;2023-03-03T06:09:59;98503.13;;;4.59;76.75
21824;BME280;11074;48.596;9.238;2023-03-03T06:12:25;98501.69;;;4.57;76.85
21824;BME280;11074;48.596;9.238;2023-03-03T06:14:51;98509.41;;;4.58;77.21
21824;BME280;11074;48.596;9.238;2023-03-03T06:17:16;98504.75;;;4.60;76.35
21824;BME280;11074;48.596;9.238;2023-03-03T06:19:42;98508.19;;;4.61;76.25
21824;BME280;11074;48.596;9.238;2023-03-03T06:22:08;98509.81;;;4.62;76.69
21824;BME280;11074;48.596;9.238;2023-03-03T06:24:34;98510.25;;;4.65;76.42
21824;BME280;11074;48.596;9.238;2023-03-03T06:27:00;98512.66;;;4.67;75.87
21824;BME280;11074;48.596;9.238;2023-03-03T06:29:27;98510.84;;;4.67;76.31
21824;BME280;11074;48.596;9.238;2023-03-03T06:31:53;98513.91;;;4.64;76.26
21824;BME280;11074;48.596;9.238;2023-03-03T06:34:19;98520.00;;;4.65;75.84
21824;BME280;11074;48.596;9.238;2023-03-03T06:36:45;98516.31;;;4.66;76.36
21824;BME280;11074;48.596;9.238;2023-03-03T06:39:14;98523.03;;;4.68;76.31
21824;BME280;11074;48.596;9.238;2023-03-03T06:41:40;98523.44;;;4.72;76.60
21824;BME280;11074;48.596;9.238;2023-03-03T06:44:06;98525.91;;;4.67;75.87
21824;BME280;11074;48.596;9.238;2023-03-03T06:46:31;98536.91;;;4.70;76.59
21824;BME280;11074;48.596;9.238;2023-03-03T06:48:57;98530.81;;;4.70;75.81
21824;BME280;11074;48.596;9.238;2023-03-03T06:51:41;98536.09;;;4.70;75.75
21824;BME280;11074;48.596;9.238;2023-03-03T06:54:14;98537.09;;;4.69;76.57
21824;BME280;11074;48.596;9.238;2023-03-03T06:56:42;98551.16;;;4.76;76.22
21824;BME280;11074;48.596;9.238;2023-03-03T06:59:18;98551.78;;;4.78;75.75
21824;BME280;11074;48.596;9.238;2023-03-03T07:01:47;98546.06;;;4.81;75.98
21824;BME280;11074;48.596;9.238;2023-03-03T07:04:28;98551.97;;;4.83;75.02
21824;BME280;11074;48.596;9.238;2023-03-03T07:07:13;98547.09;;;4.86;75.93
21824;BME280;11074;48.596;9.238;2023-03-03T07:09:39;98551.16;;;4.89;74.85
21824;BME280;11074;48.596;9.238;2023-03-03T07:12:12;98548.91;;;4.86;76.45
21824;BME280;11074;48.596;9.238;2023-03-03T07:14:46;98554.63;;;4.89;75.39
21824;BME280;11074;48.596;9.238;2023-03-03T07:17:18;98551.53;;;4.93;76.10
21824;BME280;11074;48.596;9.238;2023-03-03T07:19:46;98550.31;;;4.95;75.26
21824;BME280;11074;48.596;9.238;2023-03-03T07:22:22;98559.06;;;5.02;74.71
21824;BME280;11074;48.596;9.238;2023-03-03T07:24:56;98559.88;;;5.03;75.55
21824;BME280;11074;48.596;9.238;2023-03-03T07:27:28;98575.97;;;5.08;75.29
21824;BME280;11074;48.596;9.238;2023-03-03T07:30:24;98568.63;;;5.10;75.59
21824;BME280;11074;48.596;9.238;2023-03-03T07:32:54;98567.41;;;5.12;75.07
21824;BME280;11074;48.596;9.238;2023-03-03T07:38:02;98566.59;;;5.18;74.70
21824;BME280;11074;48.596;9.238;2023-03-03T07:40:46;98562.88;;;5.19;74.66
21824;BME280;11074;48.596;9.238;2023-03-03T07:43:42;98566.78;;;5.23;75.11
21824;BME280;11074;48.596;9.238;2023-03-03T07:46:41;98573.06;;;5.29;74.84
21824;BME280;11074;48.596;9.238;2023-03-03T07:49:34;98572.66;;;5.32;74.54
21824;BME280;11074;48.596;9.238;2023-03-03T07:52:18;98577.34;;;5.36;74.63
21824;BME280;11074;48.596;9.238;2023-03-03T07:54:45;98575.88;;;5.40;74.06
21824;BME280;11074;48.596;9.238;2023-03-03T07:57:36;98574.44;;;5.44;73.29
21824;BME280;11074;48.596;9.238;2023-03-03T08:03:02;98565.03;;;5.48;73.59
21824;BME280;11074;48.596;9.238;2023-03-03T08:05:39;98575.47;;;5.50;73.75
21824;BME280;11074;48.596;9.238;2023-03-03T08:10:46;98567.50;;;5.50;74.61
21824;BME280;11074;48.596;9.238;2023-03-03T08:13:42;98565.03;;;5.55;73.88
21824;BME280;11074;48.596;9.238;2023-03-03T08:18:37;98576.00;;;5.65;73.67
21824;BME280;11074;48.596;9.238;2023-03-03T08:21:22;98579.25;;;5.67;73.78
21824;BME280;11074;48.596;9.238;2023-03-03T08:23:48;98579.44;;;5.72;73.51
21824;BME280;11074;48.596;9.238;2023-03-03T08:26:17;98572.69;;;5.76;72.71
21824;BME280;11074;48.596;9.238;2023-03-03T08:28:44;98577.56;;;5.79;73.58
21824;BME280;11074;48.596;9.238;2023-03-03T08:31:09;98576.13;;;5.83;72.75
21824;BME280;11074;48.596;9.238;2023-03-03T08:33:35;98576.56;;;5.87;73.12
21824;BME280;11074;48.596;9.238;2023-03-03T08:36:01;98576.72;;;5.92;73.35
21824;BME280;11074;48.596;9.238;2023-03-03T08:38:27;98570.78;;;5.96;72.40
21824;BME280;11074;48.596;9.238;2023-03-03T08:40:53;98571.75;;;6.02;71.77
21824;BME280;11074;48.596;9.238;2023-03-03T08:43:18;98566.63;;;6.07;72.66
21824;BME280;11074;48.596;9.238;2023-03-03T08:45:50;98565.19;;;6.11;71.71
21824;BME280;11074;48.596;9.238;2023-03-03T08:48:16;98566.78;;;6.19;71.82
21824;BME280;11074;48.596;9.238;2023-03-03T08:50:43;98568.19;;;6.21;71.47
21824;BME280;11074;48.596;9.238;2023-03-03T08:53:10;98569.19;;;6.20;72.62
21824;BME280;11074;48.596;9.238;2023-03-03T08:55:37;98570.41;;;6.24;72.62
21824;BME280;11074;48.596;9.238;2023-03-03T08:58:03;98577.38;;;6.25;71.43
21824;BME280;11074;48.596;9.238;2023-03-03T09:00:29;98588.34;;;6.29;72.46
21824;BME280;11074;48.596;9.238;2023-03-03T09:02:54;98583.03;;;6.29;72.09
21824;BME280;11074;48.596;9.238;2023-03-03T09:05:21;98587.94;;;6.32;71.52
21824;BME280;11074;48.596;9.238;2023-03-03T09:07:48;98577.69;;;6.35;71.75
21824;BME280;11074;48.596;9.238;2023-03-03T09:10:20;98580.94;;;6.37;71.24
21824;BME280;11074;48.596;9.238;2023-03-03T09:12:52;98578.84;;;6.46;71.75
21824;BME280;11074;48.596;9.238;2023-03-03T09:15:26;98579.19;;;6.56;71.34
21824;BME280;11074;48.596;9.238;2023-03-03T09:17:58;98584.88;;;6.59;71.34
21824;BME280;11074;48.596;9.238;2023-03-03T09:20:52;98583.72;;;6.73;70.23
21824;BME280;11074;48.596;9.238;2023-03-03T09:23:37;98589.75;;;6.87;68.14
21824;BME280;11074;48.596;9.238;2023-03-03T09:26:27;98594.78;;;6.95;68.60
21824;BME280;11074;48.596;9.238;2023-03-03T09:31:47;98602.56;;;6.97;68.17
21824;BME280;11074;48.596;9.238;2023-03-03T09:34:26;98600.31;;;6.94;68.34
21824;BME280;11074;48.596;9.238;2023-03-03T09:36:57;98604.16;;;6.98;67.76
21824;BME280;11074;48.596;9.238;2023-03-03T09:39:28;98603.53;;;7.02;66.88
21824;BME280;11074;48.596;9.238;2023-03-03T09:45:17;98599.66;;;7.23;66.52
21824;BME280;11074;48.596;9.238;2023-03-03T09:51:17;98604.16;;;7.41;65.05
21824;BME280;11074;48.596;9.238;2023-03-03T09:57:03;98598.50;;;7.55;65.46
21824;BME280;11074;48.596;9.238;2023-03-03T10:00:30;98599.88;;;7.58;65.41
21824;BME280;11074;48.596;9.238;2023-03-03T10:03:56;98599.59;;;7.66;64.82
21824;BME280;11074;48.596;9.238;2023-03-03T10:07:17;98596.56;;;7.62;64.19
21824;BME280;11074;48.596;9.238;2023-03-03T10:13:17;98593.00;;;7.68;64.54
21824;BME280;11074;48.596;9.238;2023-03-03T10:19:38;98597.50;;;7.86;64.20
21824;BME280;11074;48.596;9.238;2023-03-03T10:22:23;98592.81;;;8.00;63.18
21824;BME280;11074;48.596;9.238;2023-03-03T10:27:49;98599.72;;;8.19;62.19
21824;BME280;11074;48.596;9.238;2023-03-03T10:31:26;98596.19;;;8.25;61.97
21824;BME280;11074;48.596;9.238;2023-03-03T10:42:58;98596.75;;;8.57;61.63
21824;BME280;11074;48.596;9.238;2023-03-03T10:46:31;98584.50;;;8.67;61.35
21824;BME280;11074;48.596;9.238;2023-03-03T10:51:43;98595.16;;;8.79;60.85
21824;BME280;11074;48.596;9.238;2023-03-03T10:55:07;98583.84;;;8.83;60.25
21824;BME280;11074;48.596;9.238;2023-03-03T11:00:59;98581.03;;;8.90;59.43
21824;BME280;11074;48.596;9.238;2023-03-03T11:10:35;98578.59;;;9.00;58.71
21824;BME280;11074;48.596;9.238;2023-03-03T11:13:43;98576.06;;;9.05;58.86
21824;BME280;11074;48.596;9.238;2023-03-03T11:16:20;98572.47;;;9.11;58.88
21824;BME280;11074;48.596;9.238;2023-03-03T11:22:09;98573.84;;;9.25;58.89
21824;BME280;11074;48.596;9.238;2023-03-03T11:28:08;98576.03;;;9.51;58.45
21824;BME280;11074;48.596;9.238;2023-03-03T11:34:12;98572.41;;;9.57;57.36
21824;BME280;11074;48.596;9.238;2023-03-03T11:36:50;98569.72;;;9.69;55.92
21824;BME280;11074;48.596;9.238;2023-03-03T11:39:23;98573.19;;;9.69;56.05
21824;BME280;11074;48.596;9.238;2023-03-03T11:45:21;98580.72;;;9.84;56.15
21824;BME280;11074;48.596;9.238;2023-03-03T11:48:12;98570.22;;;9.94;55.02
21824;BME280;11074;48.596;9.238;2023-03-03T11:50:58;98564.09;;;10.22;54.49
21824;BME280;11074;48.596;9.238;2023-03-03T11:54:00;98562.69;;;9.91;54.04
21824;BME280;11074;48.596;9.238;2023-03-03T11:56:40;98571.53;;;10.20;53.97
21824;BME280;11074;48.596;9.238;2023-03-03T11:59:38;98544.72;;;10.43;53.36
21824;BME280;11074;48.596;9.238;2023-03-03T12:02:42;98554.81;;;10.41;53.19
21824;BME280;11074;48.596;9.238;2023-03-03T12:08:22;98540.75;;;10.46;53.26
21824;BME280;11074;48.596;9.238;2023-03-03T12:16:55;98545.50;;;10.27;53.80
21824;BME280;11074;48.596;9.238;2023-03-03T12:22:33;98541.28;;;10.31;53.99
21824;BME280;11074;48.596;9.238;2023-03-03T12:28:23;98534.84;;;10.77;53.18
21824;BME280;11074;48.596;9.238;2023-03-03T12:34:16;98536.69;;;10.93;52.73
21824;BME280;11074;48.596;9.238;2023-03-03T12:40:02;98529.56;;;10.82;52.27
21824;BME280;11074;48.596;9.238;2023-03-03T12:42:48;98531.00;;;10.89;52.13
21824;BME280;11074;48.596;9.238;2023-03-03T12:46:10;98522.50;;;10.92;51.86
21824;BME280;11074;48.596;9.238;2023-03-03T12:48:43;98519.47;;;11.06;52.19
21824;BME280;11074;48.596;9.238;2023-03-03T12:54:33;98527.22;;;11.24;51.39
21824;BME280;11074;48.596;9.238;2023-03-03T12:57:09;98515.03;;;11.33;51.67
21824;BME280;11074;48.596;9.238;2023-03-03T13:00:15;98522.06;;;11.17;51.13
21824;BME280;11074;48.596;9.238;2023-03-03T13:03:04;98525.72;;;11.11;51.97
21824;BME280;11074;48.596;9.238;2023-03-03T13:23:26;98511.59;;;11.37;51.43
21824;BME280;11074;48.596;9.238;2023-03-03T13:29:14;98506.88;;;11.88;50.36
21824;BME280;11074;48.596;9.238;2023-03-03T13:31:48;98513.25;;;12.08;49.36
21824;BME280;11074;48.596;9.238;2023-03-03T13:34:52;98509.81;;;12.13;49.95
21824;BME280;11074;48.596;9.238;2023-03-03T13:37:38;98505.47;;;12.07;49.68
21824;BME280;11074;48.596;9.238;2023-03-03T13:40:23;98506.47;;;12.01;50.42
21824;BME280;11074;48.596;9.238;2023-03-03T13:42:58;98513.69;;;12.00;49.99
21824;BME280;11074;48.596;9.238;2023-03-03T13:45:48;98506.88;;;11.88;50.03
21824;BME280;11074;48.596;9.238;2023-03-03T13:54:50;98496.91;;;12.37;48.75
21824;BME280;11074;48.596;9.238;2023-03-03T13:57:58;98495.25;;;12.31;49.37
21824;BME280;11074;48.596;9.238;2023-03-03T14:00:35;98508.66;;;12.04;49.80
21824;BME280;11074;48.596;9.238;2023-03-03T14:03:45;98497.63;;;12.00;49.69
21824;BME280;11074;48.596;9.238;2023-03-03T14:06:24;98488.53;;;12.01;49.78
21824;BME280;11074;48.596;9.238;2023-03-03T14:12:31;98486.34;;;12.25;49.37
21824;BME280;11074;48.596;9.238;2023-03-03T14:15:23;98483.22;;;12.38;49.00
21824;BME280;11074;48.596;9.238;2023-03-03T14:18:23;98474.59;;;12.63;48.38
21824;BME280;11074;48.596;9.238;2023-03-03T14:20:55;98469.88;;;13.17;47.20
21824;BME280;11074;48.596;9.238;2023-03-03T14:23:38;98480.03;;;13.82;46.16
21824;BME280;11074;48.596;9.238;2023-03-03T14:26:11;98469.41;;;14.47;43.93
21824;BME280;11074;48.596;9.238;2023-03-03T14:28:46;98473.16;;;14.82;42.86
21824;BME280;11074;48.596;9.238;2023-03-03T14:31:38;98471.47;;;15.06;41.74
21824;BME280;11074;48.596;9.238;2023-03-03T14:36:50;98470.88;;;15.24;42.26
21824;BME280;11074;48.596;9.238;2023-03-03T14:39:32;98460.69;;;15.01;41.83
21824;BME280;11074;48.596;9.238;2023-03-03T14:42:00;98469.13;;;14.54;42.33
21824;BME280;11074;48.596;9.238;2023-03-03T14:44:51;98466.72;;;14.47;42.45
21824;BME280;11074;48.596;9.238;2023-03-03T14:47:21;98462.13;;;14.43;43.01
21824;BME280;11074;48.596;9.238;2023-03-03T14:49:49;98466.97;;;14.46;42.20
21824;BME280;11074;48.596;9.238;2023-03-03T14:54:44;98461.25;;;14.88;41.73
21824;BME280;11074;48.596;9.238;2023-03-03T14:57:19;98457.50;;;14.89;42.15
21824;BME280;11074;48.596;9.238;2023-03-03T15:00:03;98461.50;;;15.16;40.88
21824;BME280;11074;48.596;9.238;2023-03-03T15:05:32;98451.59;;;15.66;39.57
21824;BME280;11074;48.596;9.238;2023-03-03T15:10:38;98453.53;;;16.04;39.12
21824;BME280;11074;48.596;9.238;2023-03-03T15:16:10;98455.72;;;15.97;38.73
21824;BME280;11074;48.596;9.238;2023-03-03T15:19:15;98452.63;;;15.80;38.17
21824;BME280;11074;48.596;9.238;2023-03-03T15:22:19;98452.69;;;15.65;38.58
21824;BME280;11074;48.596;9.238;2023-03-03T15:25:23;98448.63;;;15.72;39.30
21824;BME280;11074;48.596;9.238;2023-03-03T15:28:31;98444.84;;;15.68;39.39
21824;BME280;11074;48.596;9.238;2023-03-03T15:36:39;98455.06;;;15.02;40.31
21824;BME280;11074;48.596;9.238;2023-03-03T15:41:43;98457.81;;;14.57;41.73
21824;BME280;11074;48.596;9.238;2023-03-03T15:44:36;98457.03;;;14.31;41.66
21824;BME280;11074;48.596;9.238;2023-03-03T15:47:29;98467.19;;;13.94;42.44
21824;BME280;11074;48.596;9.238;2023-03-03T15:56:45;98474.81;;;12.98;44.58
21824;BME280;11074;48.596;9.238;2023-03-03T15:59:36;98465.81;;;12.77;45.75
21824;BME280;11074;48.596;9.238;2023-03-03T16:05:33;98470.22;;;12.52;46.10
21824;BME280;11074;48.596;9.238;2023-03-03T16:08:16;98472.84;;;12.47;46.22
21824;BME280;11074;48.596;9.238;2023-03-03T16:11:06;98471.13;;;12.31;46.40
21824;BME280;11074;48.596;9.238;2023-03-03T16:20:00;98470.13;;;11.62;48.62
21824;BME280;11074;48.596;9.238;2023-03-03T16:26:06;98482.44;;;11.36;48.98
21824;BME280;11074;48.596;9.238;2023-03-03T16:31:12;98490.09;;;11.11;50.30
21824;BME280;11074;48.596;9.238;2023-03-03T16:36:31;98494.13;;;10.91;51.82
21824;BME280;11074;48.596;9.238;2023-03-03T16:44:59;98507.19;;;10.55;53.94
21824;BME280;11074;48.596;9.238;2023-03-03T16:50:45;98503.88;;;10.31;54.94
21824;BME280;11074;48.596;9.238;2023-03-03T16:53:47;98510.09;;;10.20;54.65
21824;BME280;11074;48.596;9.238;2023-03-03T16:59:39;98521.69;;;9.97;55.09